createdAt,value
2023-01-10T09:01:48.076Z,100.00
2023-01-10T09:04:15.619Z,100.00
2023-01-10T09:06:43.234Z,100.00
2023-01-10T09:09:10.675Z,100.00
2023-01-10T09:11:38.319Z,100.00
2023-01-10T09:14:07.502Z,100.00
2023-01-10T09:16:34.973Z,100.00
2023-01-10T09:19:02.376Z,100.00
2023-01-10T09:21:29.728Z,100.00
2023-01-10T09:23:57.146Z,100.00
2023-01-10T09:26:24.526Z,100.00
2023-01-10T09:28:51.876Z,100.00
2023-01-10T09:31:19.282Z,100.00
2023-01-10T09:33:48.871Z,100.00
2023-01-10T09:36:16.516Z,100.00
2023-01-10T09:38:44.698Z,100.00
2023-01-10T09:41:46.019Z,100.00
2023-01-10T09:45:19.439Z,100.00
2023-01-10T09:48:43.062Z,100.00
2023-01-10T09:51:41.373Z,100.00
2023-01-10T09:54:31.651Z,100.00
2023-01-10T09:57:02.018Z,100.00
2023-01-10T09:59:41.891Z,100.00
2023-01-10T10:02:39.495Z,100.00
2023-01-10T10:05:25.655Z,100.00
2023-01-10T10:08:02.419Z,100.00
2023-01-10T10:10:51.848Z,100.00
2023-01-10T10:13:44.300Z,100.00
2023-01-10T10:17:36.717Z,100.00
2023-01-10T10:20:57.979Z,100.00
2023-01-10T10:24:06.826Z,100.00
2023-01-10T10:27:25.599Z,100.00
2023-01-10T10:32:03.458Z,100.00
2023-01-10T10:34:50.907Z,100.00
2023-01-10T10:37:48.660Z,100.00
2023-01-10T10:40:28.423Z,100.00
2023-01-10T10:43:00.070Z,100.00
2023-01-10T10:46:13.066Z,100.00
2023-01-10T10:48:54.143Z,100.00
2023-01-10T10:51:42.403Z,100.00
2023-01-10T10:54:14.484Z,100.00
2023-01-10T10:56:43.145Z,100.00
2023-01-10T10:59:19.685Z,97.00
2023-01-10T11:01:49.879Z,93.44
2023-01-10T11:04:23.578Z,89.51
2023-01-10T11:06:51.867Z,88.90
2023-01-10T11:09:37.216Z,86.72
2023-01-10T11:12:06.060Z,87.36
2023-01-10T11:14:51.659Z,84.89
2023-01-10T11:17:28.545Z,83.98
2023-01-10T11:20:17.173Z,83.71
2023-01-10T11:22:53.257Z,83.32
2023-01-10T11:25:23.178Z,80.93
2023-01-10T11:27:58.941Z,80.85
2023-01-10T11:30:33.338Z,80.96
2023-01-10T11:33:17.839Z,77.54
2023-01-10T11:36:10.299Z,73.96
2023-01-10T11:38:37.744Z,75.64
2023-01-10T11:41:31.753Z,76.51
2023-01-10T11:44:29.956Z,77.59
2023-01-10T11:47:04.431Z,77.67
2023-01-10T11:49:43.099Z,77.27
2023-01-10T11:52:30.197Z,78.70
2023-01-10T11:55:00.379Z,80.49
2023-01-10T11:57:32.008Z,80.80
2023-01-10T12:00:07.286Z,80.13
2023-01-10T12:02:44.931Z,76.39
2023-01-10T12:05:22.273Z,75.99
2023-01-10T12:08:06.719Z,75.32
2023-01-10T12:10:35.474Z,72.03
2023-01-10T12:13:46.780Z,71.96
2023-01-10T12:16:31.481Z,70.08
2023-01-10T12:19:04.525Z,67.09
2023-01-10T12:21:45.631Z,66.24
2023-01-10T12:24:28.239Z,66.85
2023-01-10T12:26:57.501Z,66.07
2023-01-10T12:29:35.345Z,64.61
2023-01-10T12:32:07.953Z,65.22
2023-01-10T12:34:53.399Z,67.13
2023-01-10T12:38:07.518Z,62.58
2023-01-10T12:40:52.937Z,60.83
2023-01-10T12:43:56.460Z,58.24
2023-01-10T12:47:10.088Z,58.49
2023-01-10T12:50:25.510Z,59.54
2023-01-10T12:53:35.546Z,58.07
2023-01-10T12:56:12.236Z,57.63
2023-01-10T12:59:03.948Z,57.46
2023-01-10T13:01:40.656Z,56.95
2023-01-10T13:04:15.645Z,58.55
2023-01-10T13:06:44.583Z,56.55
2023-01-10T13:09:25.775Z,56.97
2023-01-10T13:12:24.317Z,57.24
2023-01-10T13:15:26.825Z,55.08
2023-01-10T13:18:29.274Z,55.36
2023-01-10T13:21:13.720Z,56.15
2023-01-10T13:23:51.741Z,56.23
2023-01-10T13:26:19.709Z,56.76
2023-01-10T13:29:12.746Z,56.42
2023-01-10T13:31:40.152Z,55.59
2023-01-10T13:34:16.355Z,55.28
2023-01-10T13:37:01.484Z,55.35
2023-01-10T13:39:49.088Z,56.22
2023-01-10T13:43:01.686Z,56.16
2023-01-10T13:45:31.513Z,56.20
2023-01-10T13:48:03.370Z,56.60
2023-01-10T13:50:42.240Z,57.10
2023-01-10T13:53:12.652Z,57.47
2023-01-10T13:55:39.930Z,57.18
2023-01-10T13:58:16.006Z,56.99
2023-01-10T14:01:14.132Z,57.23
2023-01-10T14:04:01.915Z,57.31
2023-01-10T14:06:29.100Z,57.21
2023-01-10T14:09:27.119Z,57.52
2023-01-10T14:12:19.799Z,57.92
2023-01-10T14:15:32.223Z,57.82
2023-01-10T14:18:24.359Z,57.33
2023-01-10T14:21:09.679Z,57.98
2023-01-10T14:23:48.634Z,57.68
2023-01-10T14:26:38.159Z,58.04
2023-01-10T14:29:15.804Z,58.23
2023-01-10T14:31:50.221Z,58.15
2023-01-10T14:34:35.724Z,57.34
2023-01-10T14:37:25.933Z,57.92
2023-01-10T14:39:56.043Z,57.50
2023-01-10T14:42:26.238Z,57.01
2023-01-10T14:46:12.429Z,56.91
2023-01-10T14:48:53.677Z,58.11
2023-01-10T14:51:32.442Z,56.63
2023-01-10T14:54:15.147Z,56.71
2023-01-10T14:56:50.856Z,55.98
2023-01-10T14:59:36.069Z,58.02
2023-01-10T15:02:25.789Z,57.23
2023-01-10T15:05:21.965Z,57.35
2023-01-10T15:07:49.557Z,57.89
2023-01-10T15:10:32.721Z,58.03
2023-01-10T15:13:05.453Z,57.98
2023-01-10T15:15:39.570Z,58.30
2023-01-10T15:18:51.332Z,59.04
2023-01-10T15:21:22.121Z,60.43
2023-01-10T15:23:51.728Z,58.63
2023-01-10T15:26:25.168Z,58.98
2023-01-10T15:29:14.848Z,58.45
2023-01-10T15:31:42.833Z,59.83
2023-01-10T15:34:20.599Z,61.60
2023-01-10T15:37:07.506Z,60.51
2023-01-10T15:39:40.745Z,59.09
2023-01-10T15:42:12.388Z,60.11
2023-01-10T15:44:52.434Z,61.26
2023-01-10T15:47:48.605Z,60.38
2023-01-10T15:50:40.455Z,59.82
2023-01-10T15:53:12.115Z,59.54
2023-01-10T15:55:55.519Z,60.11
2023-01-10T15:58:36.193Z,61.51
2023-01-10T16:01:05.031Z,59.96
2023-01-10T16:04:04.629Z,58.89
2023-01-10T16:06:36.806Z,59.20
2023-01-10T16:09:19.444Z,58.54
2023-01-10T16:12:11.336Z,58.67
2023-01-10T16:14:38.928Z,59.03
2023-01-10T16:17:06.692Z,59.52
2023-01-10T16:19:34.768Z,58.52
2023-01-10T16:22:02.420Z,58.94
2023-01-10T16:24:34.748Z,59.05
2023-01-10T16:27:08.299Z,59.62
2023-01-10T16:29:35.630Z,60.17
2023-01-10T16:32:03.045Z,60.37
2023-01-10T16:34:33.920Z,60.80
2023-01-10T16:37:01.306Z,61.14
2023-01-10T16:39:28.618Z,60.92
2023-01-10T16:42:14.559Z,61.21
2023-01-10T16:44:41.894Z,61.47
2023-01-10T16:47:09.242Z,62.74
2023-01-10T16:49:36.578Z,61.78
2023-01-10T16:52:04.166Z,61.59
2023-01-10T16:54:32.689Z,62.10
2023-01-10T16:57:00.057Z,62.82
2023-01-10T16:59:27.334Z,62.59
2023-01-10T17:01:58.721Z,63.33
2023-01-10T17:04:35.528Z,63.80
2023-01-10T17:07:03.292Z,63.94
2023-01-10T17:09:31.445Z,64.44
2023-01-10T17:12:10.835Z,64.32
2023-01-10T17:14:39.379Z,64.52
2023-01-10T17:17:06.841Z,64.86
2023-01-10T17:19:34.317Z,65.17
2023-01-10T17:22:01.679Z,65.71
2023-01-10T17:24:29.975Z,65.80
2023-01-10T17:26:57.535Z,66.03
2023-01-10T17:29:24.879Z,66.27
2023-01-10T17:31:52.312Z,67.08
2023-01-10T17:34:19.868Z,67.81
2023-01-10T17:36:47.462Z,68.11
2023-01-10T17:39:14.989Z,69.30
2023-01-10T17:41:42.486Z,70.59
2023-01-10T17:44:10.067Z,70.76
2023-01-10T17:46:37.367Z,71.78
2023-01-10T17:49:04.756Z,72.06
2023-01-10T17:51:32.111Z,72.53
2023-01-10T17:53:59.820Z,73.49
2023-01-10T17:56:27.223Z,73.83
2023-01-10T17:58:54.612Z,73.88
2023-01-10T18:01:25.853Z,74.58
2023-01-10T18:03:53.790Z,74.07
2023-01-10T18:06:25.491Z,74.39
2023-01-10T18:08:54.203Z,74.33
2023-01-10T18:11:25.111Z,75.75
2023-01-10T18:13:52.700Z,75.40
2023-01-10T18:16:20.158Z,76.50
2023-01-10T18:18:47.599Z,76.28
2023-01-10T18:21:18.762Z,77.12
2023-01-10T18:23:46.994Z,77.94
2023-01-10T18:26:14.634Z,76.71
2023-01-10T18:28:44.608Z,77.50
2023-01-10T18:31:19.639Z,77.70
2023-01-10T18:33:48.437Z,77.50
2023-01-10T18:36:21.919Z,76.17
2023-01-10T18:38:50.818Z,76.44
2023-01-10T18:41:20.938Z,76.59
2023-01-10T18:43:48.985Z,76.04
2023-01-10T18:46:21.898Z,76.70
2023-01-10T18:48:52.997Z,74.89
2023-01-10T18:51:22.622Z,75.37
2023-01-10T18:53:52.776Z,75.44
2023-01-10T18:56:20.707Z,75.32
2023-01-10T18:58:48.064Z,75.82
2023-01-10T19:01:20.628Z,75.52
2023-01-10T19:03:48.156Z,75.08
2023-01-10T19:06:21.576Z,75.65
2023-01-10T19:08:54.238Z,76.48
2023-01-10T19:11:21.804Z,76.41
2023-01-10T19:13:53.952Z,75.48
2023-01-10T19:16:34.633Z,76.17
2023-01-10T19:19:09.372Z,77.22
2023-01-10T19:21:41.101Z,78.17
2023-01-10T19:24:29.795Z,78.39
2023-01-10T19:26:57.598Z,79.84
2023-01-10T19:29:24.968Z,79.80
2023-01-10T19:31:53.160Z,79.30
2023-01-10T19:34:20.629Z,80.62
2023-01-10T19:36:48.070Z,80.74
2023-01-10T19:39:15.680Z,81.13
2023-01-10T19:41:43.276Z,79.95
2023-01-10T19:44:16.438Z,79.63
2023-01-10T19:46:47.420Z,80.72
2023-01-10T19:49:19.377Z,78.95
2023-01-10T19:51:53.542Z,79.03
2023-01-10T19:54:21.198Z,79.50
2023-01-10T19:56:48.565Z,79.59
2023-01-10T19:59:17.636Z,80.06
2023-01-10T20:01:45.136Z,80.83
2023-01-10T20:04:13.786Z,81.26
2023-01-10T20:06:42.329Z,82.26
2023-01-10T20:09:12.271Z,83.31
2023-01-10T20:11:41.975Z,82.70
2023-01-10T20:14:20.835Z,82.99
2023-01-10T20:16:49.305Z,83.06
2023-01-10T20:19:17.467Z,80.97
2023-01-10T20:21:44.915Z,82.52
2023-01-10T20:24:20.971Z,80.39
2023-01-10T20:26:51.149Z,81.36
2023-01-10T20:29:19.657Z,82.23
2023-01-10T20:31:53.147Z,82.15
2023-01-10T20:34:22.919Z,81.46
2023-01-10T20:36:52.597Z,81.03
2023-01-10T20:39:25.574Z,80.82
2023-01-10T20:41:53.210Z,80.83
2023-01-10T20:44:20.560Z,80.56
2023-01-10T20:46:47.941Z,80.18
2023-01-10T20:49:15.408Z,79.52
2023-01-10T20:51:42.739Z,79.93
2023-01-10T20:54:11.779Z,80.50
